Aberdeen, United Kingdom

10:17 AM GMT on November 26, 2014 (GMT +0000)
Dyce | Change Station
CLOSE
Current Station
Airport
Location: Aberdeen,
Elevation: 213 ft
Nearby Weather Stations

Elev 213 ft 57.20 °N, 2.21 °W | Updated 27 minutes ago

Partly Cloudy
Partly Cloudy
45 °F
Feels Like 41 °F
N
6
Wind Variable Wind from SSW

Today
High -- | Low -- °F
--% Chance of Precip.
Yesterday
High -- | Low -- °F
Precip. -- in
8:13 AM 3:37 PM
Waxing Crescent, 18% visible
Pressure 30.04 in
Visibility 6.2 miles
Clouds Few 3000 ft
Windchill 41 °F
Dew Point 41 °F
Humidity 87%
Rainfall 0.00 in
Snow Depth Not available.
UV 0 out of 12
Pollen Not available.
Air Quality Not available.
Flu Activity Not available.
METAR EGPD 260950Z 20005KT 9999 FEW030 07/05 Q1017 NOSIG

More Conditions Fewer Conditions

Pressure 30.04 in
Visibility 6.2 miles
Clouds Few 3000 ft
Windchill 41 °F
Dew Point 41 °F
Humidity 87%
Rainfall 0.00 in
Snow Depth Not available.
UV 0 out of 12
Pollen Not available.
Air Quality Not available.
Flu Activity Not available.
METAR EGPD 260950Z 20005KT 9999 FEW030 07/05 Q1017 NOSIG

More Conditions Fewer Conditions

10-Day Weather Forecast

Almanac

Astronomy

Nov. 26, 2014 Rise Set
Actual Time
Civil Twilight
Nautical Twilight
Astronomical Twilight
Moon
Length of Visible Light
Length of Day
Tomorrow will be .
, % of the Moon is Illuminated

Today's Extremes

Country Highs Country Lows

Community

WunderPhotos

Upload Photos

1,773,704 photos uploaded!

WunderBlogs® & News

Nearby

Air Quality

  Air Quality AQ Index Pollutant
Not available.

Snow Depth

Station Depth Elevation

Earthquake Activity

City Distance Mag. Time & Date
Minimum magnitude displayed is 2.5.

Coastal Water Temperatures

Place Temperature

Nearby Weather Stations